x

8419317 - Wells, Me (welm1) Weather Station

4:54 - Sun 31st Jul 2016 All times are EDT. -4 hours from GMT.

  • Wind
    2mph, 3mph gusts
  • Sea Temp 65°f
  • Aire Temp 68°f
  • Sea Pressure 1017.2mb
  • 8419317 - Wells, Me
  • 8419317 - Wells, Me

More Historic Weather Station data

Upgrade to MSW Pro to gain access to the past 30 days of data for over 8000 Wavebouys and Weather Stations around the globe.

Join Pro

Comparision Forecast

View Surf forecast
   
dom 07/31 4:54 2 3 mph 1017.2mb 65f 68f
4:48 2 5 mph 1017.1mb 65f 68f
4:42 5 6 mph 1017.1mb 65f 68f
4:36 5 6 mph 1017.2mb 65f 67f
4:30 5 6 mph 1017.1mb 65f 67f
4:24 6 7 mph 1017mb 65f 67f
4:18 6 7 mph 1017mb 65f 67f
4:12 6 7 mph 1017mb 65f 68f
4:06 7
mph
1017mb 65f 67f
4:00 6
mph
1017mb 65f 67f
3:54 5 6 mph 1017.1mb 65f 67f
3:48 6 7 mph 1017.1mb 65f 67f
3:42 6
mph
1017.1mb 65f 67f
3:36 6 7 mph 1017.1mb 65f 67f
3:30 7
mph
1017mb 65f 67f
3:24 7
mph
1017mb 65f 67f
3:18 7 8 mph 1017.1mb 65f 67f
3:12 7
mph
1017.1mb 65f 67f
3:06 7 8 mph 1017.1mb 65f 67f
3:00 7
mph
1017.1mb 65f 67f
2:54 6 7 mph 1017.1mb 65f 67f
2:48 7 8 mph 1017.1mb - -
2:42 5 6 mph 1017.1mb - -
2:36 5 6 mph 1017.1mb - -
2:30 6 7 mph 1017.2mb 65f 66f
2:24 6 7 mph 1017.2mb 65f 67f
2:18 5 6 mph 1017.3mb 65f 67f
2:12 5
mph
- 65f 68f
2:06 2 3 mph - 65f 68f
2:00  -  5 mph 1017.2mb 65f 68f
1:54 3 7 mph 1017.2mb 65f 68f
1:48 5 6 mph 1017.3mb 65f -
1:42 3
mph
1017.4mb 65f -
1:36 5 6 mph 1017.4mb 65f -
1:30 3 5 mph 1017.5mb 65f 67f
1:24 2 3 mph 1017.5mb 65f 67f
1:18 2
mph
1017.6mb 65f 67f
1:12 2 3 mph 1017.6mb 65f 67f
1:06 2 3 mph 1017.5mb 64f 67f
1:00 3
mph
1017.5mb 64f 67f
12:54 2 5 mph 1017.5mb 64f 67f
12:48 3 5 mph 1017.5mb 64f 66f
12:42 1 2 mph 1017.4mb 64f 67f
12:36  -  3 mph 1017.3mb 64f 67f
12:30 3
mph
1017.4mb 64f 67f
12:24 1
mph
1017.5mb 64f 67f
12:18 1 2 mph 1017.4mb 64f 68f
12:12 2
mph
1017.3mb 64f 68f
12:06 1 3 mph 1017.3mb 64f 68f
12:00 2
mph
1017.4mb 64f 68f
sáb 07/30 11:54 1 2 mph 1017.5mb 64f 68f
11:48  -  1 mph 1017.4mb 64f 68f
11:42  -  2 mph 1017.5mb 64f 68f
11:36 1 2 mph 1017.5mb 64f 68f
11:30 2
mph
1017.5mb 64f 68f
11:24 2
mph
1017.4mb 64f 68f
11:18  -  mph 1017.5mb 64f -
11:12  -  mph 1017.5mb 64f -
11:06  -  mph 1017.5mb 64f -
11:00  -  mph - 64f -
10:54  -  mph - 64f -
10:48 2 5 mph 1017.4mb 64f -
10:42 2 3 mph 1017.5mb 64f -
10:36 2 3 mph 1017.5mb 64f -
10:30 1 2 mph - - -
10:24 1 2 mph - - -
10:18 2 3 mph 1017.6mb 64f -
10:12 2 3 mph 1017.5mb 64f -
10:06 2 3 mph 1017.5mb 64f -
10:00 1 3 mph 1017.5mb 64f -
9:54 2 5 mph 1017.5mb 64f -
9:48 3 6 mph - - -
9:42 3 5 mph - - -
9:36 3 5 mph - - -
9:30  -  mph - 64f -
9:24  -  mph - 64f -
9:18 2 3 mph - 64f -
9:12 2 3 mph - 64f -
9:06 1
mph
- 64f -
9:00  -  1 mph 1017.2mb 64f -
8:54  -  2 mph 1017.2mb 64f -
8:48 2
mph
1017.1mb 64f -
8:42 2
mph
1016.9mb 64f -
8:36 2
mph
1016.8mb 64f -
8:30 2 3 mph - - -
8:24 2 5 mph - - -
8:18 3 5 mph - 64f 71f
8:12 3 5 mph - 64f 70f
8:06 2 5 mph - 64f 71f
8:00  -  mph - 64f -
7:54  -  mph - 64f -
7:48  -  mph - 64f -
7:42  -  mph - 65f -
7:36  -  mph - 65f -
7:30 6 7 mph - - -
7:24 7 8 mph - - -
7:18 7
mph
1016.3mb 64f -
7:12 6 7 mph 1016.3mb 64f -
7:06 7 8 mph 1016.3mb 64f -
7:00 7 9 mph 1016.2mb 64f -
6:54 8 9 mph 1016.1mb 64f -
6:48 9 10 mph 1016.1mb 64f -
6:42 10 13 mph 1016.1mb 64f -
6:36 8 10 mph 1016mb 63f -
6:30 8 11 mph - 63f 72f
6:24 9 11 mph - 63f 72f
6:18 10 13 mph 1015.8mb 63f -
6:12 13 15 mph 1015.8mb 64f -
6:06 13 15 mph 1015.7mb 64f -
6:00  -  mph - 64f 72f
5:54  -  mph - 64f 72f
5:48 9 13 mph 1015.4mb 65f 71f
5:42 10 14 mph 1015.4mb 65f 72f
5:36 11 14 mph 1015.4mb 66f 72f
5:30 11 14 mph 1015.4mb 67f 72f
5:24 11 14 mph 1015.4mb 67f 72f
5:18 11 15 mph 1015.5mb 67f 72f
5:12 11 15 mph 1015.5mb 67f 72f
5:06 11 14 mph 1015.5mb 67f 72f
5:00 10 14 mph 1015.4mb 67f 73f
4:54 13 16 mph 1015.4mb 67f 72f
4:48 11 14 mph 1015.5mb 67f 73f
4:42 9 11 mph 1015.5mb 66f 73f
4:36 9 10 mph 1015.6mb 66f 73f
4:30 9 11 mph 1015.7mb 66f 73f
4:24 9 11 mph 1015.7mb 66f 72f
4:18 10 11 mph 1015.7mb 66f 73f
4:12 9 11 mph 1015.8mb 66f 73f
4:06 10 13 mph 1015.9mb 66f 73f
4:00 9 10 mph - 66f 73f
3:54 6 9 mph - 66f 73f
3:48 6 8 mph 1016mb 66f 73f
3:42 5 8 mph 1016mb 66f 73f
3:36 5 7 mph 1016mb 66f 73f
3:30 6 8 mph 1016mb 66f 73f
3:24 6 8 mph 1016.2mb 66f 73f
3:18 6 8 mph 1016.2mb 66f 73f
3:12 6 8 mph 1016.2mb 66f 73f
3:06 6 9 mph 1016.2mb 65f 73f
3:00 7 9 mph 1016.1mb 65f 73f
2:54 7 8 mph 1016.2mb 65f 73f
2:48 6 8 mph 1016.2mb 65f 74f
2:42 6 8 mph 1016.2mb 65f 74f
2:36 6 8 mph 1016.3mb 65f 74f
2:30 7 8 mph 1016.3mb 65f 74f
2:24 7 9 mph 1016.3mb 65f 74f
2:18 7 9 mph 1016.4mb 65f 74f
2:12 7 9 mph 1016.4mb 65f 74f
2:06 8 10 mph - 65f 74f
2:00 8 10 mph - 65f 74f
1:54 6 8 mph - 64f 74f
1:48 7 9 mph - 64f 74f
1:42 6 8 mph - 64f 74f
1:36 7 9 mph 1016.4mb 64f 74f
1:30 7 8 mph 1016.4mb 64f 73f
1:24 6 8 mph 1016.3mb 64f 74f
1:18 7 8 mph 1016.3mb 64f 74f
1:12 7 9 mph 1016.2mb 64f 74f
1:06 8 9 mph 1016.3mb 63f 74f
1:00 7 9 mph - 63f 74f
12:54 8 9 mph 1016.3mb 63f 74f
12:48 8 9 mph 1016.3mb 63f 74f
12:42 8 9 mph 1016.3mb 63f 74f
12:36 6 9 mph 1016.2mb 63f 75f
12:30 8 10 mph 1016.1mb 63f 74f
12:24 9 11 mph 1016mb 63f 74f
12:18 6 8 mph 1016.1mb 62f 74f
12:12 3 9 mph 1016mb 62f 76f
12:06 7 10 mph 1016mb 62f 77f
12:00 5 9 mph 1016.1mb 62f 77f
11:54 3 6 mph 1016mb 62f 77f
11:48 2 6 mph 1016.1mb 62f 77f
11:42 8 11 mph 1016mb 62f 76f
11:36 3 8 mph 1016mb 62f 76f
11:30 5 8 mph 1016.1mb 62f 77f
11:24 5 8 mph 1016.1mb 62f 76f
11:18 5 8 mph 1016mb 62f 76f
11:12 7 9 mph 1015.9mb 62f 76f
11:06 3 8 mph 1015.9mb 62f 76f
11:00 6 9 mph 1015.7mb 62f 76f
10:54 5 9 mph 1015.7mb 62f 75f
10:48 5 9 mph - 62f 75f
10:42 10 13 mph - 62f 74f
10:36 7 10 mph - 62f 75f
10:30 8 10 mph - 62f 74f
10:24 9 11 mph - 62f 74f
10:18 6 11 mph - 62f 74f
10:12 9 13 mph - 62f 74f
10:06 10 14 mph - 62f 74f
10:00 10 14 mph 1015.7mb 62f 74f
9:54 10 13 mph 1015.7mb 62f 74f
9:48 11 13 mph 1015.7mb 62f 73f
9:42 9 13 mph 1015.8mb 62f 73f
9:36 9 13 mph 1015.8mb 62f 73f
9:30 10 13 mph 1015.8mb 62f 73f
9:24 9 11 mph 1015.8mb 62f 73f
9:18 10 11 mph - 62f 72f
9:12 10 15 mph 1015.8mb 62f 72f
9:06 11 15 mph 1015.8mb 62f 72f
9:00 13 14 mph 1015.8mb 62f 72f
8:54 9 13 mph 1015.9mb 62f 71f
8:48 9 14 mph 1015.9mb 61f 71f
8:42 9 11 mph 1015.8mb 61f 71f
8:36 10 13 mph 1015.7mb 61f 71f
8:30 9 11 mph 1015.7mb 61f 71f
8:24 8 10 mph 1015.7mb 61f 71f
8:18 8 13 mph 1015.7mb 61f 71f
8:12 10 11 mph 1015.6mb 61f 70f
8:06 8 9 mph 1015.5mb 61f 70f
8:00 8 10 mph 1015.5mb 61f 70f
7:54 7 9 mph 1015.5mb 61f 69f
7:48 7 9 mph 1015.5mb 61f 69f
7:42 8 10 mph 1015.5mb 61f 69f
7:36 8 10 mph 1015.3mb 61f 69f
7:30 8 10 mph 1015.2mb 61f 69f
7:24 7 9 mph 1015.2mb 61f 69f
7:18 7 8 mph 1015.2mb 61f 69f
7:12 2 3 mph 1015.2mb 61f 70f
7:06 1 3 mph - 61f 69f
7:00 2 3 mph - 61f 68f
6:54 2 5 mph - 61f 67f
6:48 5 6 mph - 61f 67f
6:42 5 6 mph - 61f 66f
6:36 6 8 mph - 61f 66f
6:30 7 8 mph - 61f 65f
6:24 7 8 mph - 61f 65f
6:18 7 8 mph - 61f 65f
6:12 6 8 mph 1014.1mb 61f 65f
6:06 6 8 mph 1014.1mb 62f 65f
6:00 6 7 mph 1014.1mb 62f 65f
5:54 6 7 mph 1014.1mb 62f 64f
5:48 6 9 mph 1014mb 63f 64f
5:42 8 9 mph 1014mb 64f 64f
5:36 8 10 mph 1013.9mb 64f 64f
5:30 8 10 mph 1013.9mb 65f 64f
5:24 8 9 mph - 65f 64f
5:18 8 10 mph - 66f 65f
5:12 8 9 mph - 66f 64f
5:06 9
mph
- 66f 64f
5:00 8 9 mph - 66f 64f
4:54 8 9 mph - 66f 65f
4:48 7 8 mph - 66f 64f
4:42 6 7 mph - 66f 64f
4:36 6 7 mph - 66f 64f
4:30 6
mph
- 66f 65f
4:24 6
mph
- 66f 65f
4:18 3 5 mph - 66f 65f
4:12 2 3 mph - 66f 65f
4:06 1 2 mph - 66f 65f
4:00 1 3 mph - 66f 65f
3:54 3 5 mph - 66f 65f
3:48 5 6 mph - 66f 66f
3:42 5 6 mph - 66f 66f
3:36 5 6 mph - 66f 66f
3:30 5 6 mph - 66f 66f
3:24 5 7 mph - 66f 66f
3:18 5 6 mph - 66f 66f
3:12 5 7 mph - 66f 66f
3:06 5 6 mph - 66f 66f
3:00 6 7 mph - 66f 67f
2:54 6 7 mph - 66f 67f
2:48 6 7 mph - 65f 67f
2:42 7 9 mph - 65f 67f
2:36 7 8 mph - 65f 67f
2:30 7 8 mph - 65f 67f
2:24 6 7 mph - 65f 67f
2:18 6 7 mph - 65f 68f
2:12 7 8 mph - 65f 68f
2:06 6 8 mph - 65f 68f
2:00 6 7 mph - 65f 68f
1:54 7 8 mph - 65f 68f
1:48 6 8 mph - 65f 68f
1:42 7 8 mph - 65f 68f
1:36 6 7 mph - 65f 68f
1:30 6 7 mph - 65f 68f
1:24 6
mph
- 65f 68f
1:18 6
mph
- 65f 68f
1:12 5 6 mph - 65f 68f
1:06 5
mph
- 65f 68f
1:00 3 5 mph - 65f 68f
12:54 3 5 mph - 65f 68f
12:48 2 5 mph - 65f 68f
12:42 3 6 mph - 64f 68f
12:36 3 5 mph - 64f 68f
12:30 2 3 mph 1012.2mb 64f 68f
12:24 2 3 mph 1012.2mb 64f 68f
12:18  -  2 mph 1012.2mb 64f 67f
12:12  -  2 mph 1012.3mb 64f 67f
12:06 1 3 mph 1012.3mb 64f 67f
12:00 1 2 mph 1012.3mb 64f 68f
vie 07/29 11:54 1 2 mph 1012.2mb 64f 68f
11:48  -  1 mph 1012.2mb 64f 68f
11:42  -  1 mph 1012.1mb 64f 68f
11:36  -  1 mph 1012.1mb 64f 68f
11:30  -  mph 1012mb - -
11:24  -  mph 1012.1mb - -
11:18 2
mph
- 64f -
11:12 1 2 mph - 64f -
11:06 1
mph
- 64f -
11:00  -  mph 1011.9mb 64f -
10:54  -  mph 1011.9mb 64f -
10:48 2 5 mph 1011.8mb 64f -
10:42 1
mph
- 64f -
10:36  -  2 mph - 63f -
10:30 1 2 mph - 63f -
10:24 1 2 mph 1011.7mb 63f -
10:18 2 5 mph 1011.7mb 63f -
10:12 2 5 mph 1011.7mb 63f -
10:06  -  1 mph 1011.7mb 63f -
10:00  -  1 mph 1011.7mb 63f 68f
9:54  -  1 mph - 63f 68f
9:48  -  2 mph 1011.7mb 63f -
9:42 1
mph
1011.7mb 63f -
9:36 1 3 mph 1011.7mb 63f -
9:30 3 5 mph 1011.6mb 63f -
9:24 3 5 mph 1011.5mb 63f -
9:18 2
mph
- 63f -
9:12 2
mph
- 63f -
9:06 2
mph
- 63f -
9:00  -  mph 1011.5mb 63f -
8:54  -  mph 1011.4mb 63f -
8:48 1 2 mph 1011.4mb 63f -
8:42 1
mph
1011.3mb 63f -
8:36  -  2 mph 1011.3mb 63f -
8:30 2
mph
1011.3mb 63f -
8:24 2
mph
1011.2mb 63f -
8:18 2
mph
- 63f 70f
8:12 1 2 mph - 63f 70f
8:06  -  1 mph - 63f 71f
8:00  -  mph - 63f -
7:54  -  mph - 63f -
7:48  -  mph - 63f -
7:42  -  mph - 63f -
7:36  -  mph - 63f -
7:30  -  mph - 63f -
7:24  -  mph - 63f -
7:18  -  mph - 63f -
7:12  -  mph - 62f -
7:06  -  mph - 63f -
7:00  -  mph - 63f -
6:54  -  mph - 63f -
6:48  -  mph - 62f -
6:42  -  mph - 63f -
6:36  -  mph - 63f -
6:30  -  mph - 63f -
6:24  -  mph - 63f -
6:18  -  mph - 63f -
6:12  -  mph - 63f -
6:06  -  mph - 63f -
6:00  -  mph - 63f 71f
5:54  -  mph 1010.5mb 63f 71f
5:48 6 8 mph 1010.5mb 63f 71f
5:42 6 8 mph 1010.6mb 63f 71f
5:36 6 8 mph 1010.6mb 64f 71f
5:30 6 7 mph 1010.6mb 64f 71f
5:24 6 7 mph 1010.6mb 64f 71f
5:18 6 8 mph 1010.6mb 64f 71f
5:12 5 7 mph - 64f 71f
5:06 6 9 mph 1010.4mb 64f 71f
5:00 7 9 mph 1010.4mb 64f 70f
4:54 6 8 mph 1010.4mb 64f 70f
4:48 6 9 mph - 64f 71f
4:42 6 9 mph - 65f 70f
4:36 6 9 mph - 65f 71f
4:30 6 8 mph - 65f 71f
4:24 6 8 mph - 66f 71f
4:18 6 8 mph - 66f 71f
4:12 3 8 mph - 66f 71f
4:06 5 7 mph - 66f 71f
4:00 6 7 mph - 66f 71f
3:54 5 8 mph - 66f 71f
3:48 7 9 mph - 66f 70f
3:42 8 10 mph - 66f 70f
3:36 7 9 mph - 66f 70f
3:30 7 9 mph - 65f 70f
3:24 7 10 mph - 65f 70f
3:18 8 11 mph - 65f 70f
3:12 7 11 mph - 65f 70f
3:06 3 9 mph - 65f 71f
3:00 6 10 mph - 65f 70f
2:54 8 11 mph - 65f 70f
2:48 8 11 mph - 65f 70f
2:42 8 13 mph - 65f 69f
2:36 9 11 mph - 65f 69f
2:30 8 10 mph - 65f 69f
2:24 7 10 mph - 65f 69f
2:18 8 9 mph - 65f 69f
2:12 6 7 mph - 65f 70f
2:06 6 9 mph - 65f 69f
2:00 8 9 mph - 65f 69f
1:54 7 8 mph - 65f 70f
1:48 6 8 mph - 65f 71f
1:42 5 6 mph - 65f 73f
1:36 5
mph
- 65f 73f
1:30 3 5 mph - 65f 73f
1:24 3 5 mph - 65f 74f
1:18 3 5 mph - 65f 74f
1:12 2 3 mph - 64f 74f
1:06 5 7 mph - 64f 74f
1:00 6 8 mph - 64f 74f
12:54 6
mph
- 64f 73f
12:48 6 7 mph - 64f 73f
12:42 7 8 mph - 64f 73f
12:36 7 9 mph - 64f 73f
12:30 7 9 mph - 64f 73f
12:24 8 11 mph - 64f 73f
12:18 9 13 mph - 64f 73f
12:12 9 10 mph - 64f 73f
12:06 7 8 mph - 64f 72f
12:00 7
mph
- 64f 71f
11:54 6
mph
- 64f 71f
11:48 5 6 mph - 64f 71f
11:42 5
mph
- 64f 71f
11:36 3
mph
- 64f 71f
11:30 2 3 mph - 63f 71f
11:24 2
mph
- 63f 71f
11:18 1 2 mph - 63f 71f
11:12 2 3 mph - 63f 71f
11:06 2 3 mph - 63f 71f
11:00 3 5 mph - 63f 71f
10:54 5 6 mph - 63f 71f
10:48 3 6 mph - 63f 70f
10:42 3 6 mph - 63f 70f
10:36 5 6 mph - 63f 70f
10:30 5 6 mph - 63f 70f
10:24 6 7 mph - 63f 70f
10:18 6 7 mph - 63f 70f
10:12 7 9 mph - 63f 70f
10:06 8
mph
- 63f 70f
10:00 5 6 mph - 62f 70f
9:54 3 5 mph - 62f 70f
9:48 5 7 mph - 62f 70f
9:42 7 8 mph - 62f 70f
9:36 7 9 mph - 62f 71f
9:30 8 9 mph - 62f 71f
9:24 6 9 mph 1011.2mb 62f 71f
9:18 8 10 mph 1011.2mb 62f 71f
9:12 8 10 mph 1011.4mb 62f 71f
9:06 6 7 mph 1011.4mb 62f 71f
9:00 6 8 mph - 62f 71f
8:54 5 7 mph - 62f 71f
8:48 7 8 mph - 62f 71f
8:42 5 8 mph - 62f 71f
8:36 5 6 mph - 61f 71f
8:30 6 7 mph - 61f 71f
8:24 6 7 mph - 61f 71f
8:18 5 6 mph - 61f 71f
8:12 5
mph
- 61f 71f
8:06 3 5 mph - 61f 71f
8:00 2 3 mph - 61f 70f
7:54 2 3 mph 1011mb 61f 70f
7:48 2 3 mph 1011mb 62f 70f
7:42 1 2 mph 1011mb 62f 70f
7:36 2 5 mph 1011.1mb 62f 70f
7:30 6 8 mph 1011mb 62f 70f
7:24 7 9 mph 1010.9mb 62f 70f
7:18 6 9 mph 1010.8mb 62f 70f
7:12 6 8 mph 1010.9mb 63f 70f
7:06 5 7 mph 1010.8mb 63f 70f
7:00 6 8 mph 1010.5mb 62f 69f
6:54 7 9 mph 1010.4mb 62f 69f
6:48 8 11 mph 1010.4mb 62f 69f
6:42 8 10 mph 1010.3mb 62f 69f
6:36 7 8 mph 1010.3mb 62f 68f
6:30 8 9 mph 1010.3mb 61f 68f
6:24 6 7 mph 1010.4mb 62f 68f
6:18 5
mph
1010.5mb 62f 68f
6:12 2 3 mph 1010.6mb 62f 68f
6:06 2
mph
1010.8mb 62f 68f
6:00  -  1 mph 1010.9mb 62f 68f
5:54 1 3 mph 1010.7mb 62f 67f
5:48 2 3 mph 1010.6mb 62f 68f
5:42 1 2 mph 1010.4mb 62f 68f
5:36 1 2 mph 1010.3mb 63f 68f
5:30 2 3 mph 1010.2mb 63f 68f
5:24 1 2 mph 1010.2mb 63f 68f
5:18 2 3 mph 1010.2mb 63f 68f
5:12 2
mph
1010.1mb 63f 68f
5:06  -  1 mph 1010.2mb 63f 68f
5:00 1
mph
1010.1mb 63f 68f
4:54  -  2 mph 1010.1mb 63f 68f
4:48 2
mph
1010.1mb 64f 68f
4:42 2 3 mph 1010.1mb 64f 68f
4:36 2
mph
1010.1mb 65f 68f
4:30 1 3 mph 1010.1mb 65f 68f
4:24 3 5 mph 1010.1mb 66f 68f
4:18 3 5 mph 1010.1mb 67f 68f
4:12 3 5 mph 1010.2mb 67f 68f
4:06 3 5 mph 1010.2mb 68f 69f
4:00 3 6 mph 1010.2mb 68f 69f
3:54 5 6 mph 1010.2mb 67f 69f
3:48 3 6 mph 1010.2mb 67f 69f
3:42 5
mph
1010.2mb 67f 69f
3:36 2
mph
1010.2mb 67f 70f
3:30 1 3 mph 1010.2mb 67f 70f
3:24 2 3 mph 1010.3mb 67f 70f
3:18 1 3 mph 1010.2mb 67f 70f
3:12 3 5 mph 1010.3mb 67f 70f
3:06 2 5 mph 1010.2mb 67f 70f
3:00 3 5 mph 1010.2mb 67f 70f
2:54  -  5 mph 1010.1mb 67f 71f
2:48 5 8 mph 1010mb 67f -
2:42 7 9 mph 1010mb 67f -
2:36 8 9 mph 1010mb 67f -
2:30 8 10 mph 1009.9mb 67f 70f
2:24 8 9 mph 1010mb 67f 70f
2:18 8 9 mph 1010mb 67f 71f
2:12 8 9 mph 1010.1mb 67f 71f
2:06 7 9 mph 1010.1mb 67f 71f
2:00 5 6 mph 1010.1mb 67f 70f
1:54 6
mph
1010mb 67f 71f
1:48 6 7 mph 1010.1mb 67f -
1:42 6 8 mph 1010.2mb 67f -
1:36 6 7 mph 1010.3mb 67f -
1:30 5 6 mph 1010.3mb 67f 70f
1:24 3 5 mph 1010.3mb 67f 70f
1:18 5
mph
1010.4mb 67f 70f
1:12 5 6 mph 1010.4mb 67f 70f
1:06 5
mph
1010.4mb 66f 69f
1:00 3
mph
1010.5mb 66f 69f
12:54 2 5 mph 1010.5mb 66f 69f
12:48 5 6 mph 1010.6mb 66f 69f
12:42 5 6 mph 1010.5mb 66f 69f
12:36 5 6 mph 1010.5mb 66f 69f
12:30 6 7 mph 1010.6mb 66f 70f
12:24 6 7 mph 1010.7mb 66f 69f
12:18 6 7 mph 1010.6mb 66f 69f
12:12 7 8 mph 1010.6mb 66f 69f
12:06 7
mph
1010.6mb 66f 69f
12:00 6 7 mph 1010.6mb 66f 69f
jue 07/28 11:54 2 3 mph 1010.6mb 65f 69f
11:48 3 5 mph 1010.8mb 65f 69f
11:42 5
mph
1010.9mb 65f 69f
11:36 3
mph
1010.9mb 65f 69f
11:30 2 6 mph 1010.9mb 65f 69f
11:24 6
mph
1010.9mb 65f 69f
11:18  -  mph 1010.9mb 65f -
11:12  -  mph 1011mb 65f -
11:06  -  mph 1010.9mb 65f -
11:00  -  1 mph - 65f -
10:54 1 2 mph - 65f -
10:48 1
mph
1010.8mb 64f -
10:42  -  2 mph 1010.8mb 64f -
10:36 2 3 mph 1010.9mb 64f -
10:30 1 2 mph - - -
10:24 2 3 mph - - -
10:18  -  mph - 64f 71f
10:12  -  mph - 64f 71f
10:06  -  mph - 64f 71f
10:00  -  mph 1010.9mb - -
9:54  -  mph 1010.9mb - -
9:48 5 6 mph 1010.8mb 64f -
9:42 6 8 mph 1010.7mb 64f -
9:36 5 6 mph 1010.7mb 64f -
9:30 3 6 mph 1010.6mb - -
9:24 2 5 mph 1010.6mb - -
9:18 6 9 mph - 64f -
9:12 2 5 mph - 63f -
9:06 5 6 mph - 63f -
9:00  -  mph - 63f 73f
8:54  -  mph - 63f 73f
8:48 7 9 mph - 63f -
8:42 6 7 mph - 63f -
8:36 5
mph
- 62f -
8:30 3 5 mph - 62f -
8:24 2 6 mph - 62f -
8:18 3 5 mph - 62f -
8:12 3 6 mph - 62f -
8:06 2 5 mph - 62f -
8:00  -  mph - 62f 73f
7:54  -  mph - 61f 73f
7:48 8
mph
- - -
7:42 7 8 mph - - -
7:36 5 10 mph - - -
7:30 3 6 mph - - -
7:24 6
mph
- - -
7:18 5 10 mph - 62f -
7:12 7 11 mph - 62f -
7:06 7 10 mph - 62f -
7:00  -  mph - 62f -
6:54  -  mph - 62f -
6:48  -  mph - 62f -
6:42  -  mph - 62f -
6:36  -  mph - 62f -
6:30 10 13 mph - 62f -
6:24 11 14 mph - 62f -
6:18 13 16 mph - 63f 74f
6:12 14 17 mph - 63f 74f
6:06 11 13 mph - 63f 74f
6:00 10 14 mph - 63f -
5:54 13 15 mph - 63f -
5:48 14 17 mph - 63f 75f
5:42 15 16 mph - 63f 76f
5:36 14 16 mph - 63f 76f
5:30 14
mph
- 63f 76f
5:24 10 13 mph - 64f 77f
5:18 10 13 mph - 64f 77f
5:12 10 13 mph - 64f 77f
5:06 10 13 mph - 64f 76f
5:00 11 15 mph - 64f 75f
4:54 14 17 mph - 64f 75f
4:48 14 17 mph - 64f 76f
4:42 15 17 mph - 64f 76f
4:36 15 17 mph - 64f 77f
4:30 15 18 mph - 64f 77f
4:24 15 16 mph - 64f 78f
4:18 14 17 mph - 64f 78f
4:12 16 18 mph - 64f 78f
4:06 14 17 mph - 65f 77f
4:00 14 17 mph - 65f 77f
3:54 14 17 mph - 65f 77f
3:48 15 17 mph - 65f 76f
3:42 15 18 mph - 65f 76f
3:36 16 20 mph - 65f 76f
3:30 16 18 mph - 66f 76f
3:24 17 22 mph - 66f 76f
3:18 17 21 mph - 67f 76f
3:12 18 23 mph - 67f 76f
3:06 17 21 mph - 67f 76f
3:00 17 20 mph - 67f 76f
2:54 15 18 mph 1009.5mb 67f 76f
2:48 15 18 mph 1009.5mb 67f 76f
2:42 15 17 mph 1009.6mb 66f 75f
2:36 13 16 mph 1009.6mb 66f 75f
2:30 13 16 mph - 66f 75f
2:24 14 16 mph - 66f 75f
2:18 15 17 mph 1009.9mb 66f 75f
2:12 13 17 mph 1009.9mb 66f 75f
2:06 14 17 mph 1009.9mb 66f 75f
2:00 10 14 mph 1009.9mb 66f 75f
1:54 9 13 mph 1010mb 66f 75f
1:48 9 14 mph 1010.1mb 66f 76f
1:42 7 10 mph 1010.1mb 66f 76f
1:36 7 9 mph 1010.2mb 66f 76f
1:30 5 7 mph 1010.3mb 66f 76f
1:24 3 6 mph 1010.3mb 66f 75f
1:18 6 9 mph 1010.3mb 66f 75f
1:12 9 10 mph 1010.3mb 66f 75f
1:06 7 10 mph 1010.4mb 66f 75f
1:00 7 8 mph 1010.4mb 66f 75f
12:54 5 9 mph 1010.5mb 66f 76f
12:48 5 8 mph 1010.5mb 66f 76f
12:42 5 7 mph 1010.6mb 65f 76f
12:36 6 9 mph 1010.6mb 65f 75f
12:30 7 10 mph 1010.6mb 65f 75f
12:24 8 11 mph 1010.6mb 65f 74f
12:18 9 11 mph 1010.7mb 65f 74f
12:12 9 11 mph 1010.8mb 65f 74f
12:06 9 13 mph 1010.9mb 65f 74f
12:00 8 11 mph 1010.9mb 65f 74f
11:54 8 10 mph 1011mb 65f 73f
11:48 7 9 mph 1011mb 65f 74f
11:42 8 10 mph 1011mb 65f 73f
11:36 7 9 mph 1011.1mb 64f 73f
11:30 7 9 mph 1011.1mb 64f 74f
11:24 8 10 mph 1011.2mb 64f 73f
11:18 8 10 mph 1011.2mb 64f 73f
11:12 8 9 mph 1011.3mb 64f 73f
11:06 6 8 mph 1011.3mb 64f 73f
11:00 6 9 mph 1011.3mb 64f 73f
10:54 8 10 mph 1011.3mb 64f 72f
10:48 7 8 mph 1011.3mb 63f 73f
10:42 7 8 mph 1011.4mb 63f 73f
10:36 6
mph
1011.3mb 63f 74f
10:30 3 6 mph 1011.4mb 63f 73f
10:24 6 7 mph 1011.3mb 63f 74f
10:18 6 7 mph 1011.3mb 63f 74f
10:12 5 6 mph 1011.3mb 63f 74f
10:06 6 7 mph 1011.3mb 63f 74f
10:00 5 6 mph 1011.3mb 63f 73f
9:54 6 8 mph 1011.3mb 63f 73f
9:48 6
mph
1011.4mb 63f 73f
9:42 5 6 mph 1011.3mb 63f 73f
9:36 6 8 mph 1011.3mb 63f 73f
9:30 6 7 mph 1011.3mb 63f 73f
9:24 6 7 mph 1011.3mb 63f 73f
9:18 6 7 mph 1011.4mb 63f 74f
9:12 2 5 mph 1011.3mb 63f 72f
9:06 3 5 mph 1011.3mb 63f 74f
9:00 3 6 mph 1011.3mb 62f 73f
8:54 3 5 mph 1011.3mb 62f 73f
8:48 3
mph
1011.3mb 62f 75f
8:42 3
mph
1011.3mb 62f 76f
8:36 3 5 mph - 62f 75f
8:30 2 3 mph - 62f 75f
8:24 3 5 mph - 62f 75f
8:18 3
mph
- 62f 76f
8:12 3
mph
- 62f 77f
8:06 2
mph
- 62f 77f
8:00 1 2 mph - 62f 77f
7:54 1 2 mph - 62f 76f
7:48 2
mph
- 62f 76f
7:42  -  1 mph - 62f 73f
7:36  -  2 mph - 62f 72f
7:30 2
mph
- 62f 72f
7:24  -  mph - 62f 73f
7:18  -  mph - 62f 73f
7:12  -  mph - 62f 71f
7:06  -  1 mph - 62f 69f
7:00  -  1 mph - 62f 69f
6:54 1
mph
- 62f 68f
6:48  -  1 mph - 62f 67f
6:42  -  2 mph - 62f 66f
6:36 1 2 mph - 62f 65f
6:30 1 2 mph - 62f 64f
6:24 2
mph
- 62f 63f
6:18 2
mph
- 62f 63f
6:12 1
mph
- 62f 63f
6:06 1
mph
- 62f 63f
6:00 1 2 mph - 62f 63f
5:54 2
mph
- 62f 63f
5:48  -  1 mph - 61f 64f
5:42  -  1 mph - 61f 63f
5:36 1 2 mph - 61f 64f
5:30 1
mph
- 61f 64f
5:24  -  1 mph - 62f 63f
5:18  -  1 mph - 62f 63f
5:12 1 2 mph - 62f 63f
5:06 2
mph
- 62f 64f
5:00 1 2 mph - 62f 64f
4:54  -  1 mph - 62f 64f
4:48  -  2 mph - 62f 64f
4:42 1 2 mph - 62f 64f
4:36 1 2 mph - 62f 63f
4:30 2 3 mph - 62f 64f
4:24 3
mph
- 62f 64f
4:18  -  1 mph - 62f 66f
4:12 2
mph
- 62f 66f
4:06 1 3 mph - 62f 66f
4:00 1 2 mph - 63f 66f
3:54 2 3 mph 1010.7mb 63f 66f
3:48 2 3 mph 1010.7mb 63f 67f
3:42 3
mph
1010.8mb 63f 67f
3:36 3 5 mph 1010.8mb 63f 65f
3:30 2 3 mph 1010.9mb 64f 64f
3:24 2
mph
1010.9mb 64f 64f
3:18 1
mph
1010.9mb 65f 64f
3:12  -  1 mph 1011mb 66f 65f
3:06  -  2 mph 1010.9mb 66f 65f
3:00 1 2 mph 1010.8mb 67f 65f
2:54  -  1 mph 1010.8mb 67f 65f
2:48  -  1 mph 1010.8mb 67f -
2:42  -  1 mph 1010.7mb 67f -
2:36  -  1 mph 1010.7mb 67f -
2:30  -  1 mph 1010.7mb 67f 65f
2:24 1
mph
1010.7mb 67f 65f
2:18  -  1 mph 1010.7mb 67f 65f
2:12  -  1 mph 1010.8mb 66f 65f
2:06  -  1 mph 1010.8mb 66f 65f
2:00  -  2 mph 1010.8mb 66f 64f
1:54 2
mph
1010.8mb 66f 65f
1:48 1
mph
1010.9mb 66f -
1:42  -  2 mph 1010.9mb 66f -
1:36 2
mph
1010.8mb 66f -
1:30 3
mph
1010.7mb 66f 65f
1:24 2
mph
1010.7mb 66f 65f
1:18 1
mph
1010.6mb 66f 65f
1:12 2
mph
1010.6mb 66f 65f
1:06 2
mph
1010.6mb 66f 65f
1:00 1 2 mph 1010.7mb 66f 65f
12:54 2
mph
1010.7mb 66f 65f
12:48 2
mph
1010.9mb 66f 65f
12:42 1
mph
1010.9mb 66f 65f
12:36 1 2 mph 1010.9mb 66f 65f
12:30 1 2 mph 1010.9mb 66f 66f
12:24  -  mph 1011mb 66f 66f
12:18  -  1 mph 1011.1mb 65f 66f
12:12 1
mph
1011.1mb 65f 66f
12:06  -  1 mph 1011.1mb 65f 66f
12:00 1 2 mph 1011.1mb 65f 66f
mié 07/27 11:54 2
mph
1011.1mb 65f 66f
11:48 1
mph
1011.1mb 65f 66f
11:42 1 2 mph 1011.1mb 65f 66f
11:36 2 3 mph 1011.2mb 65f 66f
11:30 2 3 mph 1011.3mb 65f 66f
11:24  -  1 mph 1011.3mb 65f 67f
11:18  -  1 mph - 65f -
11:12 1 3 mph - 65f -
11:06 2 3 mph - 65f -
11:00  -  1 mph 1011.4mb 64f -
10:54  -  1 mph 1011.4mb 64f -
10:48  -  3 mph - - -
10:42 3
mph
- - -
10:36 2 3 mph - - -
10:30 3
mph
- - -
10:24 3
mph
- - -
10:18 2
mph
- 64f -
10:12 2
mph
- 64f -
10:06 1 2 mph - 64f -
10:00  -  mph - 63f -
9:54  -  mph - 63f -
9:48 2
mph
- - -
9:42 2
mph
- - -
9:36 2
mph
- - -
9:30  -  mph 1011.5mb - -
9:24  -  mph 1011.4mb - -
9:18 1
mph
- - -
9:12 1 2 mph - - -
9:06 2 3 mph - - -
9:00  -  mph - 63f -
8:54  -  mph - 63f -
8:48 5 6 mph 1011.2mb - -
8:42 5 6 mph 1011.1mb - -
8:36 5 6 mph 1011.1mb - -
8:30  -  mph 1011.1mb 62f -
8:24  -  mph 1011mb 62f -
8:18  -  mph - 62f 71f
8:12  -  mph - 62f 71f
8:06  -  mph - 62f 71f
8:00  -  mph - 62f 71f
7:54  -  mph - 62f 71f
7:48  -  mph 1011.1mb - -
7:42  -  mph 1011.1mb - -
7:36  -  mph 1011.2mb - -
7:30 8 9 mph - 62f -
7:24 9 11 mph - 62f -
7:18  -  mph - 62f 72f
7:12  -  mph - 62f 73f
7:06  -  mph - 62f 73f
7:00  -  mph - 62f 73f
6:54  -  mph - 62f 73f
6:48  -  mph - 62f 73f
6:42  -  mph - 62f 73f
6:36  -  mph - 62f 73f
6:30 13 15 mph - - -
6:24 14 15 mph - - -
6:18 13 16 mph 1011.2mb 62f 73f
6:12 10 14 mph 1011.1mb 62f 74f
6:06 10 14 mph 1011.1mb 62f 74f
6:00  -  mph - 62f -
5:54  -  mph - 62f -
5:48 13 15 mph - 62f 74f
5:42 13 15 mph - 62f 74f
5:36 11 14 mph - 62f 74f
5:30 10 14 mph 1011.2mb 62f 74f
5:24 11 14 mph 1011.1mb 61f 75f
5:18 14 15 mph 1011.1mb 61f 75f
5:12 13 16 mph 1011.1mb 61f 74f
5:06 13 16 mph 1011.1mb 61f 74f
5:00 13 16 mph 1011.1mb 61f 74f
4:54 13 15 mph 1011.2mb 61f 74f
4:48 13 16 mph 1011.2mb 62f 74f
4:42 11 16 mph - 62f 74f
4:36 11 14 mph - 61f 74f
4:30 14 16 mph - 62f 74f
4:24 14 16 mph - 61f 74f
4:18 14 16 mph - 61f 74f
4:12 13 16 mph - 61f 74f
4:06 13 16 mph - 61f 74f
4:00 14 15 mph - 61f 74f
3:54 13 15 mph - 61f 74f
3:48 13 15 mph - 61f 74f
3:42 13 16 mph - 61f 74f
3:36 14 17 mph - 62f 75f
3:30 14 16 mph - 62f 74f
3:24 14 18 mph - 62f 75f
3:18 15 18 mph - 62f 75f
3:12 13 16 mph - 62f 75f
3:06 13 16 mph - 62f 75f
3:00 14 15 mph - 62f 75f
2:54 14 16 mph - 62f 75f
2:48 13 15 mph - 62f 75f
2:42 13 15 mph - 62f 76f
2:36 13 16 mph - 62f 76f
2:30 13 15 mph - 63f 76f
2:24 11 14 mph - 63f 76f
2:18 13 15 mph - 64f 76f
2:12 11 15 mph - 64f 76f
2:06 11 15 mph - 64f 76f
2:00 10 13 mph - 63f 76f
1:54 9 11 mph - 63f 76f
1:48 10 11 mph - 63f 76f
1:42 9 11 mph - 63f 76f
1:36 8 10 mph - 63f 77f
1:30 9 13 mph - 63f 76f
1:24 9 13 mph - 63f 76f
1:18 10 13 mph - 63f 76f
1:12 9 11 mph - 63f 76f
1:06 9 13 mph - 63f 76f
1:00 10 13 mph - 63f 77f
12:54 9 11 mph - 63f 77f
12:48 9 11 mph - 63f 78f
12:42 9 11 mph - 63f 78f
12:36 9 11 mph - 63f 78f
12:30 10 11 mph - 63f 78f
12:24 10 11 mph - 63f 78f
12:18 10 11 mph - 62f 78f
12:12 10 14 mph - 62f 77f
12:06 11 13 mph - 62f 77f
12:00 9 11 mph - 62f 76f
11:54 9 10 mph - 62f 77f
11:48 8 9 mph - 62f 77f
11:42 8 10 mph - 62f 77f
11:36 8 10 mph - 62f 76f
11:30 8 11 mph - 62f 78f
11:24 8 9 mph - 62f 80f
11:18 7 9 mph - 62f 80f
11:12 8 9 mph 1012.4mb 62f 79f
11:06 8 9 mph 1012.4mb 62f 78f
11:00 7 9 mph 1012.4mb 62f 78f
10:54 8 9 mph 1012.4mb 62f 77f
10:48 7 8 mph 1012.3mb 62f 78f
10:42 7 9 mph 1012.3mb 61f 77f
10:36 8
mph
1012.3mb 61f 77f
10:30 7 8 mph 1012.3mb 61f 78f
10:24 7 8 mph 1012.4mb 61f 78f
10:18 6 7 mph 1012.3mb 61f 78f
10:12 6
mph
1012.3mb 61f 78f
10:06 6 7 mph 1012.2mb 61f 78f
10:00 6 7 mph 1012.2mb 61f 77f
9:54 6 7 mph 1012.2mb 61f 77f
9:48 6
mph
1012.3mb 61f 77f
9:42 5 6 mph 1012.2mb 60f 78f